Webb City, Missouri
Current Conditions -  °F | °C
As of 4:53 PM on Thursday 23 Oct 2014 (Local Time) from KJLN Reporting Station
Overcast Overcast  
Wind Chill: 61°   Ceiling: 1200
Heat Index: 61°   Visibility: 10mi
Dew Point: 57°   Wind: 7mph
Humidity: 87%   Direction: 190°S
Pressure: 30.11"   Gusts: NA
Location:  37.15°N, 94.46°W
Report Text: KJLN 232153Z 19006KT 10SM OVC012 16/14 A3011 RMK AO2 SLP192 T01610139
Loading
Personal Weather Stations






























Interactive Weather Map
Tropical Storm Tracking
New forecast layout! Learn more

10-Day Weather Forecast

Advertisements
Track Severe Weather on mobile